Time;durP1;ratioP1;P1;durP2;ratioP2;P2;SDS_P1;SDS_P2;PMS_P1;PMS_P2;Temp;Humidity;BMP_temperature;BMP_pressure;BME280_temperature;BME280_humidity;BME280_pressure;Samples;Min_cycle;Max_cycle;Signal;HPM_P1;HPM_P2
2021/12/02 00:00:55;;;;;;;1.27;0.40;;;16.50;68.00;;;;;;5079172;28;20520;-36
2021/12/02 00:03:21;;;;;;;0.65;0.43;;;16.50;68.00;;;;;;5061369;28;33572;-38
2021/12/02 00:05:46;;;;;;;1.17;0.47;;;16.50;68.00;;;;;;5078382;28;20063;-39
2021/12/02 00:08:12;;;;;;;0.80;0.40;;;16.50;67.90;;;;;;5064368;28;20048;-38
2021/12/02 00:10:40;;;;;;;1.13;0.40;;;16.50;67.90;;;;;;5076769;28;20051;-38
2021/12/02 00:13:06;;;;;;;0.75;0.30;;;16.50;67.80;;;;;;5060674;28;21587;-33
2021/12/02 00:15:36;;;;;;;0.50;0.40;;;16.50;67.70;;;;;;5075922;28;37124;-38
2021/12/02 00:21:04;;;;;;;0.60;0.40;;;16.40;67.60;;;;;;5079383;28;20060;-38
2021/12/02 00:24:06;;;;;;;1.15;0.30;;;16.40;67.70;;;;;;5060567;28;20045;-35
2021/12/02 00:26:35;;;;;;;0.75;0.50;;;16.40;67.80;;;;;;5079859;28;20094;-39
2021/12/02 00:29:03;;;;;;;0.57;0.40;;;16.40;67.70;;;;;;5064307;28;20075;-32
2021/12/02 00:31:32;;;;;;;0.85;0.40;;;16.40;67.60;;;;;;5076781;28;35892;-37
2021/12/02 00:34:01;;;;;;;1.92;0.50;;;16.40;67.60;;;;;;5066064;28;20123;-38
2021/12/02 00:36:28;;;;;;;0.88;0.40;;;16.40;67.70;;;;;;5077439;28;20024;-38
2021/12/02 00:38:55;;;;;;;1.00;0.30;;;16.40;67.60;;;;;;5061211;28;20101;-39
2021/12/02 00:41:24;;;;;;;0.43;0.32;;;16.40;67.50;;;;;;5079022;28;20055;-36
2021/12/02 00:43:51;;;;;;;0.65;0.55;;;16.40;67.50;;;;;;5063296;28;22675;-32
2021/12/02 00:46:21;;;;;;;1.48;0.40;;;16.40;67.50;;;;;;5077234;28;20052;-38
2021/12/02 00:48:48;;;;;;;0.68;0.30;;;16.40;67.40;;;;;;5077516;28;20063;-31
2021/12/02 00:51:15;;;;;;;1.73;0.52;;;16.30;67.40;;;;;;5060708;28;20055;-34
2021/12/02 00:53:45;;;;;;;1.13;0.45;;;16.30;67.50;;;;;;5077141;28;20483;-38
2021/12/02 00:56:13;;;;;;;1.02;0.40;;;16.30;67.40;;;;;;5060864;28;20104;-38
2021/12/02 00:58:38;;;;;;;0.60;0.38;;;16.30;67.40;;;;;;5076985;28;33919;-37
2021/12/02 01:01:05;;;;;;;0.47;0.47;;;16.30;67.40;;;;;;5061841;28;22219;-38
2021/12/02 01:03:34;;;;;;;1.40;0.40;;;16.30;67.40;;;;;;5079861;28;20058;-36
2021/12/02 01:06:01;;;;;;;1.77;0.45;;;16.30;67.30;;;;;;5057740;28;20438;-37
2021/12/02 01:08:27;;;;;;;1.27;0.28;;;16.30;67.30;;;;;;5081231;28;20093;-40
2021/12/02 01:10:53;;;;;;;0.73;0.35;;;16.30;67.40;;;;;;5061108;28;22200;-38
2021/12/02 01:13:19;;;;;;;0.93;0.40;;;16.30;67.30;;;;;;5075598;28;22187;-38
2021/12/02 01:15:45;;;;;;;0.35;0.35;;;16.20;67.20;;;;;;5063538;28;20285;-38
2021/12/02 01:18:10;;;;;;;0.70;0.40;;;16.20;67.20;;;;;;5077309;28;20048;-33
2021/12/02 01:20:39;;;;;;;0.63;0.32;;;16.20;67.30;;;;;;5064712;28;22042;-39
2021/12/02 01:23:07;;;;;;;1.10;0.60;;;16.20;67.20;;;;;;5076795;28;20040;-32
2021/12/02 01:25:34;;;;;;;0.95;0.45;;;16.20;67.20;;;;;;5079665;28;20124;-32
2021/12/02 01:28:00;;;;;;;1.10;0.22;;;16.20;67.20;;;;;;5061721;28;34558;-37
2021/12/02 01:30:27;;;;;;;0.30;0.30;;;16.20;67.20;;;;;;5077479;28;20044;-38
2021/12/02 01:33:01;;;;;;;1.00;0.30;;;16.20;67.20;;;;;;5053846;28;20045;-37
2021/12/02 01:35:28;;;;;;;1.05;0.50;;;16.20;67.20;;;;;;5077954;28;20123;-39
2021/12/02 01:37:54;;;;;;;0.63;0.30;;;16.20;67.20;;;;;;5062628;28;20044;-39
2021/12/02 01:40:20;;;;;;;0.65;0.28;;;16.10;67.10;;;;;;5077292;28;31154;-38
2021/12/02 01:42:50;;;;;;;0.98;0.50;;;16.10;67.10;;;;;;5059715;28;20048;-35
2021/12/02 01:45:20;;;;;;;1.25;0.50;;;16.10;67.10;;;;;;5063813;28;20430;-38
2021/12/02 01:47:51;;;;;;;0.65;0.40;;;16.10;67.20;;;;;;5075592;27;20070;-38
2021/12/02 01:50:20;;;;;;;0.32;0.20;;;16.10;67.20;;;;;;5078890;28;20106;-38
2021/12/02 01:52:53;;;;;;;0.73;0.30;;;16.10;67.10;;;;;;5059929;28;20087;-37
2021/12/02 01:55:18;;;;;;;0.47;0.32;;;16.10;67.20;;;;;;5075369;28;33961;-36
2021/12/02 01:57:59;;;;;;;0.60;0.20;;;16.00;67.20;;;;;;5062246;28;24253;-37
2021/12/02 02:00:41;;;;;;;1.20;0.55;;;16.00;67.10;;;;;;5077624;28;20032;-33
2021/12/02 02:03:07;;;;;;;;;;;16.00;67.10;;;;;;5060487;28;20044;-38
2021/12/02 02:05:32;;;;;;;0.70;0.22;;;16.00;67.00;;;;;;5079667;28;19977;-35
2021/12/02 02:08:10;;;;;;;0.60;0.30;;;16.00;67.10;;;;;;5066068;28;21442;-33
2021/12/02 02:10:39;;;;;;;0.85;0.40;;;16.00;67.10;;;;;;5075110;28;20139;-37
2021/12/02 02:13:09;;;;;;;0.20;0.20;;;16.00;67.10;;;;;;5074343;28;20680;-37
2021/12/02 02:15:37;;;;;;;0.45;0.30;;;16.00;67.00;;;;;;5073431;28;20044;-35
2021/12/02 02:18:10;;;;;;;0.47;0.28;;;16.00;67.00;;;;;;5076236;28;20051;-39
2021/12/02 02:20:57;;;;;;;0.30;0.22;;;16.00;66.80;;;;;;5054741;28;20590;-38
2021/12/02 02:23:24;;;;;;;0.90;0.35;;;16.00;66.80;;;;;;5078534;28;20081;-37
2021/12/02 02:25:50;;;;;;;0.75;0.30;;;16.00;66.80;;;;;;5058753;28;33771;-31
2021/12/02 02:28:16;;;;;;;0.68;0.35;;;15.90;66.70;;;;;;5074484;28;20040;-38
2021/12/02 02:30:42;;;;;;;0.57;0.30;;;15.90;66.60;;;;;;5059248;28;20043;-38
2021/12/02 02:33:11;;;;;;;0.63;0.30;;;15.90;66.60;;;;;;5058529;28;20040;-37
2021/12/02 02:35:37;;;;;;;0.63;0.20;;;15.90;66.60;;;;;;5061320;28;25406;-39
2021/12/02 02:38:04;;;;;;;1.67;0.40;;;15.90;66.80;;;;;;5074753;28;20107;-38
2021/12/02 02:40:30;;;;;;;0.55;0.28;;;15.90;66.70;;;;;;5060094;28;31113;-38
2021/12/02 02:42:59;;;;;;;0.25;0.25;;;15.90;66.70;;;;;;5076829;28;20044;-37
2021/12/02 02:45:25;;;;;;;1.15;0.30;;;15.90;66.70;;;;;;5060038;28;20384;-36
2021/12/02 02:47:51;;;;;;;0.30;0.20;;;15.80;66.60;;;;;;5077153;28;20093;-37
2021/12/02 02:50:17;;;;;;;0.45;0.32;;;15.80;66.60;;;;;;5065394;28;22560;-38
2021/12/02 02:52:44;;;;;;;0.30;0.20;;;15.80;66.60;;;;;;5075342;28;20066;-40
2021/12/02 02:55:20;;;;;;;0.43;0.30;;;15.80;66.60;;;;;;5056684;28;34517;-37
2021/12/02 03:00:34;;;;;;;0.70;0.20;;;15.80;67.30;;;;;;5054887;28;20118;-38
2021/12/02 03:03:21;;;;;;;0.63;0.20;;;15.80;66.60;;;;;;5071953;28;20040;-33
2021/12/02 03:06:11;;;;;;;0.20;0.20;;;15.80;66.60;;;;;;5061459;28;20080;-37
2021/12/02 03:08:48;;;;;;;0.22;0.20;;;15.80;66.50;;;;;;5059583;28;21884;-36
2021/12/02 03:11:16;;;;;;;0.30;0.30;;;15.80;66.60;;;;;;5060411;28;20051;-39
2021/12/02 03:13:52;;;;;;;0.20;0.20;;;15.70;66.50;;;;;;5079071;28;20047;-34
2021/12/02 03:19:04;;;;;;;0.57;0.22;;;15.70;66.60;;;;;;5075748;28;20089;-37
2021/12/02 03:21:30;;;;;;;0.20;0.17;;;15.70;66.50;;;;;;5059359;28;20051;-37
2021/12/02 03:24:00;;;;;;;0.75;0.20;;;15.70;66.60;;;;;;5068545;28;31688;-37
2021/12/02 03:26:30;;;;;;;0.70;0.20;;;15.60;66.50;;;;;;5066904;28;20079;-33
2021/12/02 03:28:56;;;;;;;0.22;0.20;;;15.70;66.60;;;;;;5073601;28;20052;-37
2021/12/02 03:31:22;;;;;;;0.43;0.20;;;15.60;66.50;;;;;;5079003;28;20155;-32
2021/12/02 03:33:49;;;;;;;0.47;0.20;;;15.60;66.50;;;;;;5058074;28;20120;-39
2021/12/02 03:36:16;;;;;;;0.20;0.20;;;15.60;66.50;;;;;;5074167;28;36023;-40
2021/12/02 03:38:41;;;;;;;0.70;0.28;;;15.60;66.50;;;;;;5062566;28;20040;-38
2021/12/02 03:41:08;;;;;;;0.20;0.20;;;15.60;66.50;;;;;;5075208;28;20117;-37
2021/12/02 03:43:42;;;;;;;0.13;0.10;;;15.60;66.50;;;;;;5063048;28;20068;-38
2021/12/02 03:46:11;;;;;;;0.20;0.20;;;15.60;66.50;;;;;;5079890;28;20399;-36
2021/12/02 03:48:37;;;;;;;1.02;0.10;;;15.50;66.40;;;;;;5058394;28;26000;-35
2021/12/02 03:51:05;;;;;;;0.30;0.20;;;15.50;66.40;;;;;;5077137;28;31995;-39
2021/12/02 03:53:30;;;;;;;0.40;0.30;;;15.50;66.40;;;;;;5059450;28;24360;-34
2021/12/02 03:55:56;;;;;;;0.35;0.30;;;15.50;66.40;;;;;;5078487;28;21281;-37
2021/12/02 03:58:22;;;;;;;0.57;0.30;;;15.50;66.30;;;;;;5062769;28;20604;-33
2021/12/02 04:00:47;;;;;;;0.20;0.20;;;15.50;66.30;;;;;;5074780;28;20048;-38
2021/12/02 04:03:13;;;;;;;0.10;0.10;;;15.50;66.30;;;;;;5061814;28;20051;-38
2021/12/02 04:05:38;;;;;;;0.32;0.20;;;15.50;66.30;;;;;;5072745;28;33164;-39
2021/12/02 04:08:04;;;;;;;0.50;0.20;;;15.50;66.20;;;;;;5077855;28;20551;-39
2021/12/02 04:10:31;;;;;;;0.17;0.10;;;15.50;66.30;;;;;;5058952;28;20058;-40
2021/12/02 04:15:38;;;;;;;0.10;0.10;;;15.40;66.10;;;;;;5063371;28;20075;-37
2021/12/02 04:18:04;;;;;;;0.40;0.30;;;15.40;66.10;;;;;;5078328;28;33802;-37
2021/12/02 04:20:30;;;;;;;0.22;0.20;;;15.40;66.10;;;;;;5062795;28;25004;-31
2021/12/02 04:22:56;;;;;;;0.47;0.20;;;15.40;66.10;;;;;;5078692;28;20040;-37
2021/12/02 04:25:24;;;;;;;0.30;0.30;;;15.40;66.10;;;;;;5062049;28;27031;-32
2021/12/02 04:27:50;;;;;;;0.55;0.30;;;15.40;66.10;;;;;;5082866;28;20101;-39
2021/12/02 04:30:19;;;;;;;0.45;0.20;;;15.40;66.00;;;;;;5061462;28;20056;-39
2021/12/02 04:32:46;;;;;;;0.17;0.10;;;15.40;66.00;;;;;;5078519;28;32040;-38
2021/12/02 04:35:12;;;;;;;0.60;0.20;;;15.40;66.00;;;;;;5066205;28;20036;-38
2021/12/02 04:37:38;;;;;;;0.10;0.10;;;15.40;66.00;;;;;;5080267;28;20105;-38
2021/12/02 04:40:05;;;;;;;0.20;0.20;;;15.30;66.00;;;;;;5063136;28;20048;-39
2021/12/02 04:42:30;;;;;;;0.47;0.10;;;15.30;65.90;;;;;;5080280;28;20071;-37
2021/12/02 04:44:56;;;;;;;0.20;0.20;;;15.30;66.00;;;;;;5079109;28;20407;-37
2021/12/02 04:47:22;;;;;;;0.40;0.20;;;15.30;65.90;;;;;;5059538;28;35907;-40
2021/12/02 04:49:47;;;;;;;0.32;0.10;;;15.30;65.90;;;;;;5079941;28;20398;-40
2021/12/02 04:52:13;;;;;;;0.20;0.20;;;15.30;66.00;;;;;;5061045;28;20050;-34
2021/12/02 04:54:39;;;;;;;0.20;0.20;;;15.30;65.90;;;;;;5078101;28;20070;-39
2021/12/02 04:57:05;;;;;;;0.20;0.20;;;15.30;65.90;;;;;;5044101;28;20032;-39
2021/12/02 04:59:30;;;;;;;0.93;0.15;;;15.30;65.90;;;;;;5078700;28;20434;-32
2021/12/02 05:01:56;;;;;;;0.20;0.10;;;15.20;65.80;;;;;;5048270;28;34837;-36
2021/12/02 05:04:21;;;;;;;0.20;0.20;;;15.20;65.80;;;;;;5076315;28;20059;-35
2021/12/02 05:06:47;;;;;;;0.40;0.10;;;15.20;65.80;;;;;;5062673;28;24513;-38
2021/12/02 05:09:13;;;;;;;0.45;0.25;;;15.20;65.80;;;;;;5077568;28;20777;-38
2021/12/02 05:11:38;;;;;;;0.10;0.10;;;15.20;65.80;;;;;;5067647;28;20036;-34
2021/12/02 05:14:05;;;;;;;0.10;0.10;;;15.20;65.80;;;;;;5073256;28;20472;-39
2021/12/02 05:16:31;;;;;;;0.20;0.15;;;15.20;65.80;;;;;;5074824;28;34026;-39
2021/12/02 05:18:57;;;;;;;0.55;0.13;;;15.10;65.80;;;;;;5064550;28;20973;-39
2021/12/02 05:21:23;;;;;;;0.75;0.20;;;15.10;65.70;;;;;;5076721;28;20530;-37
2021/12/02 05:23:55;;;;;;;0.17;0.10;;;15.10;65.70;;;;;;5059612;28;20043;-40
2021/12/02 05:26:21;;;;;;;0.13;0.10;;;15.10;65.80;;;;;;5078501;28;20162;-37
2021/12/02 05:28:47;;;;;;;0.20;0.13;;;15.10;65.80;;;;;;5060579;28;33695;-37
2021/12/02 05:31:13;;;;;;;0.20;0.10;;;15.10;65.80;;;;;;5076800;28;20040;-39
2021/12/02 05:33:38;;;;;;;0.25;0.10;;;15.10;65.70;;;;;;5064684;28;20035;-36
2021/12/02 05:36:04;;;;;;;0.10;0.10;;;15.10;65.70;;;;;;5076093;28;20040;-38
2021/12/02 05:38:30;;;;;;;1.23;0.17;;;15.10;65.70;;;;;;5064405;28;20038;-38
2021/12/02 05:40:55;;;;;;;0.10;0.10;;;15.10;65.70;;;;;;5077618;28;20043;-36
2021/12/02 05:43:21;;;;;;;0.17;0.10;;;15.00;65.70;;;;;;5058340;28;34040;-39
2021/12/02 05:45:47;;;;;;;0.60;0.20;;;15.00;65.80;;;;;;5079246;28;20444;-36
2021/12/02 05:48:12;;;;;;;0.40;0.20;;;15.00;65.70;;;;;;5075121;28;20043;-31
2021/12/02 05:50:38;;;;;;;0.20;0.20;;;15.10;65.80;;;;;;5068210;28;20040;-38
2021/12/02 05:53:04;;;;;;;0.20;0.20;;;15.00;65.70;;;;;;5077445;28;20051;-38
2021/12/02 05:55:29;;;;;;;0.28;0.10;;;15.00;65.70;;;;;;5061870;28;20040;-38
2021/12/02 05:57:55;;;;;;;0.15;0.15;;;15.00;65.60;;;;;;5071978;28;35922;-38
2021/12/02 06:00:21;;;;;;;0.13;0.10;;;15.10;65.60;;;;;;5063082;28;20040;-38
2021/12/02 06:02:47;;;;;;;0.52;0.20;;;15.10;65.50;;;;;;5075445;28;20060;-36
2021/12/02 06:05:17;;;;;;;0.17;0.10;;;15.10;65.40;;;;;;5062574;28;22679;-38
2021/12/02 06:07:44;;;;;;;0.15;0.10;;;15.10;65.30;;;;;;5077711;28;20063;-36
2021/12/02 06:10:10;;;;;;;0.10;0.10;;;15.10;65.40;;;;;;5062644;28;23827;-36
2021/12/02 06:12:36;;;;;;;0.35;0.10;;;15.10;65.30;;;;;;5075702;28;34092;-36
2021/12/02 06:15:01;;;;;;;0.10;0.10;;;15.10;65.30;;;;;;5060000;28;21618;-36
2021/12/02 06:17:27;;;;;;;0.10;0.10;;;15.10;65.20;;;;;;5075824;28;20041;-39
2021/12/02 06:19:52;;;;;;;0.63;0.30;;;15.20;65.20;;;;;;5061640;28;22627;-39
2021/12/02 06:22:18;;;;;;;0.52;0.10;;;15.20;65.10;;;;;;5076543;28;20531;-39
2021/12/02 06:24:47;;;;;;;1.00;0.20;;;15.20;64.90;;;;;;5074054;28;24343;-37
2021/12/02 06:27:13;;;;;;;0.15;0.10;;;15.30;64.80;;;;;;5059875;28;20081;-36
2021/12/02 06:29:38;;;;;;;0.70;0.20;;;15.30;64.80;;;;;;5078793;28;20991;-38
2021/12/02 06:32:07;;;;;;;0.57;0.20;;;15.30;64.80;;;;;;5060509;28;20043;-39
2021/12/02 06:34:32;;;;;;;0.70;0.10;;;15.30;64.80;;;;;;5068996;28;20737;-38
2021/12/02 06:36:58;;;;;;;0.43;0.20;;;15.30;64.80;;;;;;5060594;28;20069;-34
2021/12/02 06:39:24;;;;;;;0.40;0.15;;;15.30;64.70;;;;;;5077193;28;20674;-39
2021/12/02 06:41:49;;;;;;;0.10;0.10;;;15.30;64.70;;;;;;5060200;28;20084;-39
2021/12/02 06:44:15;;;;;;;0.85;0.28;;;15.40;64.70;;;;;;5079402;28;20040;-37
2021/12/02 06:46:40;;;;;;;0.20;0.20;;;15.40;64.60;;;;;;5059045;28;20043;-36
2021/12/02 06:49:06;;;;;;;0.73;0.30;;;15.40;64.50;;;;;;5075895;28;20036;-39
2021/12/02 06:51:32;;;;;;;1.05;0.22;;;15.50;64.50;;;;;;5060338;28;20049;-36
2021/12/02 06:53:58;;;;;;;0.15;0.15;;;15.50;64.50;;;;;;5075852;28;31483;-38
2021/12/02 06:56:23;;;;;;;0.10;0.10;;;15.50;64.40;;;;;;5065755;28;20038;-36
2021/12/02 06:58:49;;;;;;;0.20;0.13;;;15.50;64.40;;;;;;5074010;28;20041;-35
2021/12/02 07:01:14;;;;;;;0.20;0.10;;;15.60;64.40;;;;;;5076452;28;20487;-33
2021/12/02 07:03:40;;;;;;;1.75;0.20;;;15.60;64.30;;;;;;5061219;28;20044;-40
2021/12/02 07:06:06;;;;;;;0.20;0.20;;;15.60;64.30;;;;;;5077281;28;20105;-40
2021/12/02 07:08:32;;;;;;;0.20;0.20;;;15.60;64.30;;;;;;5056281;28;34254;-38
2021/12/02 07:11:04;;;;;;;0.38;0.10;;;15.60;64.20;;;;;;5077461;28;20146;-36
2021/12/02 07:13:30;;;;;;;0.20;0.20;;;15.70;64.20;;;;;;5057721;28;20047;-40
2021/12/02 07:15:57;;;;;;;0.10;0.10;;;15.70;64.20;;;;;;5081095;28;20031;-38
2021/12/02 07:18:24;;;;;;;0.10;0.10;;;15.70;64.20;;;;;;5058345;28;20143;-39
2021/12/02 07:20:50;;;;;;;0.10;0.10;;;15.70;64.20;;;;;;5072262;28;27380;-37
2021/12/02 07:23:18;;;;;;;0.17;0.17;;;15.70;64.10;;;;;;5060688;28;24603;-37
2021/12/02 07:25:45;;;;;;;0.32;0.10;;;15.80;64.20;;;;;;5074641;28;20039;-40
2021/12/02 07:28:12;;;;;;;0.20;0.20;;;15.80;64.20;;;;;;5062353;28;20042;-38
2021/12/02 07:30:39;;;;;;;0.30;0.30;;;15.80;64.20;;;;;;5061613;28;20048;-36
2021/12/02 07:33:09;;;;;;;0.82;0.20;;;15.80;64.20;;;;;;5058494;28;22270;-33
2021/12/02 07:35:34;;;;;;;0.20;0.20;;;15.80;64.20;;;;;;5078467;28;34364;-39
2021/12/02 07:38:02;;;;;;;0.20;0.20;;;15.80;64.20;;;;;;5073854;28;21507;-40
2021/12/02 07:40:30;;;;;;;0.32;0.30;;;15.80;64.20;;;;;;5061105;28;23408;-35
2021/12/02 07:42:56;;;;;;;0.30;0.30;;;15.80;64.20;;;;;;5076552;28;20043;-36
2021/12/02 07:45:27;;;;;;;0.30;0.30;;;15.90;64.20;;;;;;5058654;28;20139;-36
2021/12/02 07:47:52;;;;;;;0.63;0.30;;;15.90;64.20;;;;;;5077703;28;20059;-40
2021/12/02 07:50:19;;;;;;;0.22;0.22;;;15.90;64.20;;;;;;5058288;28;33881;-40
2021/12/02 07:52:50;;;;;;;0.32;0.30;;;15.90;64.20;;;;;;5079385;28;20542;-39
2021/12/02 07:55:17;;;;;;;0.52;0.20;;;15.90;64.20;;;;;;5062471;28;20048;-37
2021/12/02 07:57:45;;;;;;;0.20;0.20;;;15.90;64.20;;;;;;5079359;28;20076;-38
2021/12/02 08:00:12;;;;;;;0.40;0.40;;;15.90;64.20;;;;;;5064711;28;20040;-39
2021/12/02 08:02:43;;;;;;;0.73;0.20;;;15.90;64.20;;;;;;5082681;28;20063;-35
2021/12/02 08:05:09;;;;;;;0.20;0.20;;;15.90;64.20;;;;;;5058612;28;36935;-39
2021/12/02 08:07:35;;;;;;;0.20;0.20;;;16.00;64.20;;;;;;5077278;28;20502;-32
2021/12/02 08:10:03;;;;;;;0.20;0.20;;;16.00;64.10;;;;;;5068490;28;20079;-37
2021/12/02 08:12:28;;;;;;;0.30;0.30;;;15.90;64.10;;;;;;5080219;28;20047;-35
2021/12/02 08:14:54;;;;;;;2.17;0.40;;;16.00;64.20;;;;;;5069762;28;20102;-32
2021/12/02 08:17:20;;;;;;;0.20;0.20;;;16.00;64.10;;;;;;5068026;28;33283;-38
2021/12/02 08:19:45;;;;;;;0.20;0.20;;;16.00;64.10;;;;;;5075022;28;20044;-39
2021/12/02 08:22:11;;;;;;;0.40;0.30;;;16.00;64.10;;;;;;5062213;28;21662;-37
2021/12/02 08:24:36;;;;;;;9.20;0.55;;;16.00;64.10;;;;;;5080225;28;20035;-37
2021/12/02 08:27:02;;;;;;;1.38;0.38;;;16.00;64.40;;;;;;5046438;28;23842;-38
2021/12/02 08:29:28;;;;;;;3.40;0.45;;;16.10;64.50;;;;;;5086498;28;20040;-37
2021/12/02 08:31:53;;;;;;;1.48;0.35;;;16.10;64.50;;;;;;5061814;28;36941;-40
2021/12/02 08:34:19;;;;;;;2.72;0.30;;;16.10;64.50;;;;;;5079860;28;20032;-40
2021/12/02 08:36:54;;;;;;;6.38;0.45;;;16.20;64.00;;;;;;5065840;28;20044;-40
2021/12/02 08:39:25;;;;;;;1.52;0.30;;;16.20;63.60;;;;;;5078332;28;20047;-33
2021/12/02 08:41:54;;;;;;;0.43;0.20;;;16.20;63.50;;;;;;5065455;28;20063;-39
2021/12/02 08:44:20;;;;;;;1.08;0.28;;;16.20;63.50;;;;;;5081967;28;20047;-39
2021/12/02 08:46:47;;;;;;;0.45;0.22;;;16.20;63.60;;;;;;5060837;28;37169;-35
2021/12/02 08:49:13;;;;;;;2.17;0.70;;;16.20;63.50;;;;;;5077439;28;20436;-37
2021/12/02 08:51:39;;;;;;;0.35;0.20;;;16.20;63.60;;;;;;5068318;28;20076;-33
2021/12/02 08:54:05;;;;;;;0.40;0.30;;;16.20;63.60;;;;;;5075652;28;20684;-39
2021/12/02 08:56:31;;;;;;;1.58;0.60;;;16.20;63.60;;;;;;5079945;28;20035;-37
2021/12/02 08:58:56;;;;;;;0.80;0.30;;;16.30;63.70;;;;;;5063910;28;20146;-35
2021/12/02 09:01:22;;;;;;;1.13;0.30;;;16.30;63.60;;;;;;5076692;28;24430;-39
2021/12/02 09:03:48;;;;;;;0.25;0.25;;;16.30;63.70;;;;;;5062974;28;20052;-39
2021/12/02 09:06:14;;;;;;;1.73;0.30;;;16.30;63.70;;;;;;5078615;28;20093;-38
2021/12/02 09:08:40;;;;;;;0.25;0.25;;;16.30;63.80;;;;;;5063385;28;20068;-36
2021/12/02 09:11:06;;;;;;;0.40;0.30;;;16.30;63.60;;;;;;5079242;28;20063;-38
2021/12/02 09:13:32;;;;;;;0.88;0.40;;;16.30;63.60;;;;;;5060949;28;31999;-39
2021/12/02 09:15:58;;;;;;;0.82;0.35;;;16.30;63.80;;;;;;5078143;28;20115;-39
2021/12/02 09:18:23;;;;;;;0.30;0.30;;;16.30;63.70;;;;;;5063828;28;20032;-38
2021/12/02 09:20:49;;;;;;;0.40;0.40;;;16.30;63.80;;;;;;5079127;28;20094;-40
2021/12/02 09:23:15;;;;;;;1.45;0.60;;;16.30;63.80;;;;;;5063801;28;20043;-37
2021/12/02 09:25:41;;;;;;;1.25;0.50;;;16.30;63.90;;;;;;5080715;28;20533;-38
2021/12/02 09:28:07;;;;;;;1.25;0.55;;;16.30;63.80;;;;;;5061010;28;33839;-38
2021/12/02 09:30:33;;;;;;;1.42;0.40;;;16.30;63.80;;;;;;5061623;28;20498;-37
2021/12/02 09:32:59;;;;;;;0.73;0.40;;;16.30;63.90;;;;;;5079795;28;20098;-32
2021/12/02 09:35:25;;;;;;;1.17;0.55;;;16.40;63.80;;;;;;5060126;28;20443;-35
2021/12/02 09:37:51;;;;;;;0.68;0.40;;;16.40;63.80;;;;;;5080437;28;20040;-35
2021/12/02 09:40:18;;;;;;;1.10;0.40;;;16.40;63.80;;;;;;5061006;28;20494;-38
2021/12/02 09:42:45;;;;;;;1.15;0.40;;;16.40;63.80;;;;;;5077885;28;27050;-38
2021/12/02 09:45:12;;;;;;;0.30;0.30;;;16.40;63.80;;;;;;5064217;28;20811;-36
2021/12/02 09:47:41;;;;;;;2.30;0.63;;;16.40;64.00;;;;;;5078437;28;20048;-38
2021/12/02 09:50:29;;;;;;;0.50;0.40;;;16.40;63.90;;;;;;5061993;28;20534;-38
2021/12/02 09:53:00;;;;;;;0.45;0.45;;;16.50;63.70;;;;;;5080826;28;20052;-38
2021/12/02 09:55:34;;;;;;;;;;;16.50;63.60;;;;;;5060301;28;20041;-37
2021/12/02 09:58:02;;;;;;;2.40;0.88;;;16.50;63.50;;;;;;5075586;28;19920;-38
2021/12/02 10:00:38;;;;;;;1.85;0.77;;;16.50;63.50;;;;;;5064452;28;20048;-38
2021/12/02 10:03:15;;;;;;;0.60;0.60;;;16.50;63.40;;;;;;5081269;28;20118;-38
2021/12/02 10:06:16;;;;;;;1.00;0.70;;;16.50;63.20;;;;;;5062561;28;20044;-34
2021/12/02 10:08:42;;;;;;;0.82;0.70;;;16.60;63.30;;;;;;5079473;28;20055;-38
2021/12/02 10:11:12;;;;;;;0.90;0.90;;;16.60;63.10;;;;;;5063959;28;31300;-37
2021/12/02 10:16:32;;;;;;;0.67;0.67;;;16.60;63.00;;;;;;5063389;28;20590;-34
2021/12/02 10:19:06;;;;;;;0.85;0.70;;;16.60;63.00;;;;;;5096871;28;20067;-37
2021/12/02 10:21:41;;;;;;;0.60;0.60;;;16.70;63.00;;;;;;5055802;28;20040;-38
2021/12/02 10:24:16;;;;;;;0.80;0.65;;;16.70;63.00;;;;;;5077773;28;34513;-37
2021/12/02 10:26:45;;;;;;;0.75;0.60;;;16.70;63.00;;;;;;5061599;28;20131;-38
2021/12/02 10:29:14;;;;;;;0.57;0.55;;;16.70;62.90;;;;;;5078878;28;20040;-36
2021/12/02 10:31:43;;;;;;;0.82;0.60;;;16.70;63.00;;;;;;5056633;28;20070;-36
2021/12/02 10:34:09;;;;;;;0.77;0.77;;;16.70;63.00;;;;;;5077671;28;20167;-38
2021/12/02 10:36:39;;;;;;;0.60;0.60;;;16.70;63.00;;;;;;5067096;28;20047;-32
2021/12/02 10:39:17;;;;;;;0.60;0.60;;;16.70;63.00;;;;;;5071685;28;22405;-38
2021/12/02 10:41:45;;;;;;;0.40;0.40;;;16.70;63.00;;;;;;5079471;28;20050;-37
2021/12/02 10:44:17;;;;;;;0.40;0.40;;;16.70;62.90;;;;;;5061292;28;20169;-36
2021/12/02 10:46:53;;;;;;;0.57;0.57;;;16.80;62.90;;;;;;5080107;28;20044;-39
2021/12/02 10:49:20;;;;;;;0.77;0.60;;;16.70;62.80;;;;;;5061821;28;20081;-37
2021/12/02 10:51:50;;;;;;;0.52;0.38;;;16.70;62.80;;;;;;5075287;28;35782;-32
2021/12/02 10:54:36;;;;;;;0.93;0.55;;;16.80;62.90;;;;;;5057473;28;24606;-37
2021/12/02 10:57:11;;;;;;;0.50;0.50;;;16.80;62.70;;;;;;5080019;28;20044;-35
2021/12/02 10:59:43;;;;;;;0.50;0.50;;;16.80;62.80;;;;;;5063443;28;20075;-34
2021/12/02 11:02:19;;;;;;;1.17;0.68;;;16.80;62.80;;;;;;5075546;28;20064;-35
2021/12/02 11:04:54;;;;;;;0.40;0.40;;;16.80;62.80;;;;;;5064103;28;20042;-39
2021/12/02 11:07:21;;;;;;;0.47;0.40;;;16.70;62.80;;;;;;5073951;28;31361;-37
2021/12/02 11:09:50;;;;;;;0.68;0.40;;;16.70;62.80;;;;;;5061139;28;20052;-38
2021/12/02 11:12:19;;;;;;;0.55;0.55;;;16.70;62.80;;;;;;5055115;28;20415;-35
2021/12/02 11:15:05;;;;;;;0.50;0.50;;;16.80;62.80;;;;;;5052445;28;20040;-36
2021/12/02 11:17:33;;;;;;;0.40;0.40;;;16.80;62.80;;;;;;5073487;28;20036;-35
2021/12/02 11:20:04;;;;;;;1.58;0.50;;;16.70;62.90;;;;;;5056052;28;34208;-35
2021/12/02 11:22:30;;;;;;;1.38;0.50;;;16.80;63.50;;;;;;5074795;28;20111;-38
2021/12/02 11:24:57;;;;;;;0.90;0.50;;;16.80;63.90;;;;;;5066116;28;20040;-37
2021/12/02 11:27:33;;;;;;;1.60;0.47;;;16.90;64.10;;;;;;5077096;28;20044;-37
2021/12/02 11:30:03;;;;;;;0.75;0.40;;;16.90;64.30;;;;;;5063235;28;20392;-35
2021/12/02 11:32:31;;;;;;;0.60;0.57;;;16.90;64.50;;;;;;5080739;28;20040;-35
2021/12/02 11:35:05;;;;;;;1.85;0.50;;;16.90;64.70;;;;;;5053960;28;31356;-35
2021/12/02 11:37:36;;;;;;;1.13;0.40;;;16.90;65.20;;;;;;5082596;28;20040;-37
2021/12/02 11:40:24;;;;;;;1.52;0.40;;;16.80;65.30;;;;;;5077717;28;20093;-33
2021/12/02 11:42:51;;;;;;;0.40;0.40;;;16.80;66.00;;;;;;5081011;28;20044;-38
2021/12/02 11:45:20;;;;;;;0.95;0.32;;;16.80;65.90;;;;;;5079825;28;20075;-32
2021/12/02 11:47:47;;;;;;;0.77;0.50;;;16.70;66.20;;;;;;5078178;28;20036;-37
2021/12/02 11:50:15;;;;;;;1.08;0.60;;;16.70;66.50;;;;;;5078200;28;35894;-39
2021/12/02 11:52:41;;;;;;;0.50;0.38;;;16.70;66.80;;;;;;5057924;28;20044;-37
2021/12/02 11:55:12;;;;;;;1.23;0.50;;;16.70;66.90;;;;;;5075369;28;20044;-38
2021/12/02 11:57:38;;;;;;;0.60;0.40;;;16.70;67.10;;;;;;5063538;28;21145;-33
2021/12/02 12:00:07;;;;;;;0.52;0.30;;;16.70;67.40;;;;;;5079097;28;20707;-38
2021/12/02 12:02:33;;;;;;;0.50;0.50;;;16.70;67.60;;;;;;5061112;28;28532;-38
2021/12/02 12:05:02;;;;;;;1.52;0.80;;;16.70;67.80;;;;;;5078805;28;21358;-36
2021/12/02 12:07:43;;;;;;;0.38;0.30;;;16.70;67.90;;;;;;5063453;28;21182;-34
2021/12/02 12:10:21;;;;;;;0.45;0.40;;;16.70;68.00;;;;;;5080907;28;20079;-33
2021/12/02 12:12:49;;;;;;;0.40;0.40;;;16.70;67.90;;;;;;5065928;28;20048;-37
2021/12/02 12:15:39;;;;;;;0.25;0.25;;;16.70;67.60;;;;;;5080908;28;20042;-39
2021/12/02 12:18:07;;;;;;;0.35;0.30;;;16.70;68.30;;;;;;5061184;28;36935;-37
2021/12/02 12:21:02;;;;;;;0.60;0.40;;;16.70;68.00;;;;;;5082543;28;20071;-38
2021/12/02 12:23:31;;;;;;;0.30;0.30;;;16.80;68.80;;;;;;5062807;28;23516;-38
2021/12/02 12:26:25;;;;;;;0.38;0.30;;;16.80;68.40;;;;;;5079942;28;20484;-36
2021/12/02 12:29:13;;;;;;;0.40;0.40;;;16.80;68.90;;;;;;5066659;28;24106;-37
2021/12/02 12:32:07;;;;;;;0.60;0.38;;;16.80;68.70;;;;;;5077928;28;31957;-38
2021/12/02 12:34:49;;;;;;;0.38;0.35;;;16.70;68.60;;;;;;5081851;28;20032;-38
2021/12/02 12:37:27;;;;;;;0.50;0.35;;;16.80;68.70;;;;;;5078374;28;20040;-37
2021/12/02 12:40:26;;;;;;;0.47;0.30;;;16.80;68.70;;;;;;5065411;28;20036;-36
2021/12/02 12:42:57;;;;;;;0.40;0.40;;;16.90;69.10;;;;;;5082446;28;20040;-37
2021/12/02 12:45:37;;;;;;;0.30;0.30;;;16.90;68.90;;;;;;5066710;28;33959;-37
2021/12/02 12:48:04;;;;;;;0.30;0.30;;;16.90;69.00;;;;;;5076104;28;21371;-37
2021/12/02 12:50:38;;;;;;;0.30;0.30;;;16.90;68.90;;;;;;5062986;28;20155;-37
2021/12/02 12:53:06;;;;;;;0.40;0.30;;;16.90;69.00;;;;;;5057187;28;20456;-39
2021/12/02 12:55:37;;;;;;;0.60;0.38;;;16.80;69.10;;;;;;5062053;28;23984;-37
2021/12/02 12:58:18;;;;;;;0.30;0.28;;;16.80;69.20;;;;;;5080329;28;20031;-38
2021/12/02 13:00:46;;;;;;;0.63;0.30;;;16.80;69.50;;;;;;5058284;28;36367;-38
2021/12/02 13:03:29;;;;;;;0.43;0.40;;;16.80;69.30;;;;;;5077298;28;20040;-38
2021/12/02 13:06:17;;;;;;;0.90;0.47;;;16.80;69.10;;;;;;5068798;28;20028;-36
2021/12/02 13:09:09;;;;;;;0.68;0.32;;;16.70;69.20;;;;;;5078832;28;20055;-37
2021/12/02 13:11:35;;;;;;;0.50;0.50;;;16.70;69.20;;;;;;5057766;28;20056;-38